Castro Verd, Portugal
Current Conditions -  °F | °C
As of 9:00 AM on Thursday 27 Nov 2014 (Local Time) from LPBJ Reporting Station
Scattered Clouds Scattered Clouds  
Wind Chill: 52°   Ceiling: Unl
Heat Index: 52°   Visibility: 6mi
Dew Point: 52°   Wind: 9mph
Humidity: 100%   Direction: 70°ENE
Pressure: 29.47"   Gusts: NA
Location:  37.7°N, 8.08°W
Report Text: LPBJ 270900Z 07008KT 9999 FEW010 SCT020 FEW025CB 11/11 Q0998
Loading
Personal Weather Stations






























Interactive Weather Map New forecast layout! Learn more

10-Day Weather Forecast

Advertisements
Track Severe Weather on mobile